Time;durP1;ratioP1;P1;durP2;ratioP2;P2;SDS_P1;SDS_P2;PMS_P1;PMS_P2;Temp;Humidity;BMP_temperature;BMP_pressure;BME280_temperature;BME280_humidity;BME280_pressure;Samples;Min_cycle;Max_cycle;Signal;HPM_P1;HPM_P2
2024/04/08 00:00:25;;;;;;;9.25;2.38;;;13.30;99.90;;;;;;5046440;28;20162;-70
2024/04/08 00:02:51;;;;;;;8.55;2.28;;;13.30;99.90;;;;;;5065451;28;20041;-70
2024/04/08 00:05:18;;;;;;;7.18;1.65;;;13.30;99.90;;;;;;5045323;28;20053;-70
2024/04/08 00:07:45;;;;;;;9.63;2.00;;;13.30;99.90;;;;;;5047495;28;20037;-69
2024/04/08 00:10:11;;;;;;;10.27;2.30;;;13.20;99.90;;;;;;5026892;28;20115;-69
2024/04/08 00:12:40;;;;;;;11.65;1.90;;;13.30;99.90;;;;;;5046693;28;20508;-70
2024/04/08 00:15:07;;;;;;;11.20;2.00;;;13.20;99.90;;;;;;5057566;28;20083;-69
2024/04/08 00:17:33;;;;;;;8.77;2.00;;;13.20;99.90;;;;;;5045118;28;20139;-69
2024/04/08 00:19:59;;;;;;;8.48;1.50;;;13.20;99.90;;;;;;5049260;28;20640;-69
2024/04/08 00:22:25;;;;;;;9.98;2.00;;;13.30;99.90;;;;;;5047109;28;20397;-69
2024/04/08 00:24:54;;;;;;;11.07;2.22;;;13.30;99.90;;;;;;5046640;28;20045;-69
2024/04/08 00:27:20;;;;;;;13.57;2.58;;;13.20;99.90;;;;;;5050509;28;20041;-69
2024/04/08 00:29:46;;;;;;;10.38;2.03;;;13.20;99.90;;;;;;5044598;28;20539;-69
2024/04/08 00:32:12;;;;;;;9.77;2.00;;;13.20;99.90;;;;;;5041855;28;20045;-69
2024/04/08 00:34:39;;;;;;;13.40;1.95;;;13.10;99.90;;;;;;5042842;28;20118;-69
2024/04/08 00:37:04;;;;;;;7.95;1.38;;;13.20;99.90;;;;;;5047107;28;20378;-69
2024/04/08 00:39:30;;;;;;;10.00;1.88;;;13.20;99.90;;;;;;5048357;28;20051;-69
2024/04/08 00:41:56;;;;;;;9.90;1.60;;;13.20;99.90;;;;;;5041393;28;20040;-69
2024/04/08 00:44:21;;;;;;;9.70;1.98;;;13.20;99.90;;;;;;5045836;28;20040;-70
2024/04/08 00:46:48;;;;;;;10.45;2.17;;;13.20;99.90;;;;;;5049568;28;20044;-70
2024/04/08 00:49:14;;;;;;;8.23;1.58;;;13.20;99.90;;;;;;5048111;28;20036;-69
2024/04/08 00:51:44;;;;;;;8.63;2.03;;;13.20;99.90;;;;;;5046481;28;20037;-69
2024/04/08 00:54:11;;;;;;;10.15;2.17;;;13.10;99.90;;;;;;5031313;28;20179;-69
2024/04/08 00:56:40;;;;;;;15.50;2.45;;;13.10;99.90;;;;;;5045951;28;20067;-69
2024/04/08 00:59:11;;;;;;;11.57;2.10;;;13.10;99.90;;;;;;5050134;28;20033;-69
2024/04/08 01:01:37;;;;;;;10.07;1.77;;;13.00;99.90;;;;;;5048622;28;20637;-70
2024/04/08 01:04:03;;;;;;;8.10;2.28;;;13.00;99.90;;;;;;5044272;28;20044;-70
2024/04/08 01:06:29;;;;;;;11.35;2.85;;;12.90;99.90;;;;;;5040841;28;20040;-70
2024/04/08 01:08:55;;;;;;;8.30;2.10;;;12.90;99.90;;;;;;5040561;28;20032;-70
2024/04/08 01:11:20;;;;;;;11.77;2.70;;;12.90;99.90;;;;;;5044016;28;20033;-72
2024/04/08 01:13:46;;;;;;;10.00;2.60;;;12.90;99.90;;;;;;5041678;28;20033;-72
2024/04/08 01:16:12;;;;;;;11.52;2.70;;;12.90;99.90;;;;;;5050360;28;20119;-72
2024/04/08 01:18:38;;;;;;;10.45;2.55;;;12.90;99.90;;;;;;5045460;28;20132;-72
2024/04/08 01:21:04;;;;;;;10.43;2.47;;;12.80;99.90;;;;;;5046064;28;20047;-73
2024/04/08 01:23:45;;;;;;;13.23;2.83;;;12.80;99.90;;;;;;5051846;28;20048;-74
2024/04/08 01:26:11;;;;;;;11.25;2.63;;;12.80;99.90;;;;;;5051256;28;20114;-74
2024/04/08 01:28:38;;;;;;;8.73;3.03;;;12.80;99.90;;;;;;5048860;28;20459;-75
2024/04/08 01:31:04;;;;;;;12.20;2.70;;;12.80;99.90;;;;;;5051040;28;20036;-76
2024/04/08 01:33:31;;;;;;;10.07;3.05;;;12.80;99.90;;;;;;5058236;28;20064;-77
2024/04/08 01:36:00;;;;;;;9.70;2.83;;;12.80;99.90;;;;;;5055227;28;20060;-78
2024/04/08 01:38:29;;;;;;;12.43;3.10;;;12.80;99.90;;;;;;5044321;28;20116;-79
2024/04/08 01:40:56;;;;;;;9.05;2.75;;;12.70;99.90;;;;;;5065006;28;20072;-80
2024/04/08 01:43:22;;;;;;;8.88;3.13;;;12.70;99.90;;;;;;5046464;28;20106;-78
2024/04/08 01:45:48;;;;;;;13.00;3.05;;;12.70;99.90;;;;;;5043057;28;20036;-77
2024/04/08 01:48:13;;;;;;;8.05;2.60;;;12.70;99.90;;;;;;5048256;28;20177;-78
2024/04/08 01:50:39;;;;;;;10.25;2.92;;;12.70;99.90;;;;;;5032836;28;20055;-78
2024/04/08 01:53:05;;;;;;;9.77;3.10;;;12.70;99.90;;;;;;5048291;28;20129;-78
2024/04/08 01:55:31;;;;;;;9.18;3.10;;;12.70;99.90;;;;;;5048450;28;20051;-77
2024/04/08 01:57:57;;;;;;;7.85;2.75;;;12.70;99.90;;;;;;5040708;28;20033;-77
2024/04/08 02:00:23;;;;;;;9.27;2.80;;;12.70;99.90;;;;;;5048711;28;20044;-77
2024/04/08 02:02:49;;;;;;;9.68;2.80;;;12.70;99.90;;;;;;5045271;28;20040;-76
2024/04/08 02:05:16;;;;;;;8.70;2.88;;;12.70;99.90;;;;;;5035656;28;20061;-77
2024/04/08 02:07:42;;;;;;;7.22;3.22;;;12.70;99.90;;;;;;5031132;28;20404;-76
2024/04/08 02:10:07;;;;;;;8.27;3.15;;;12.70;99.90;;;;;;5037819;28;20136;-76
2024/04/08 02:12:33;;;;;;;7.35;3.00;;;12.70;99.90;;;;;;5044972;28;20119;-76
2024/04/08 02:14:59;;;;;;;9.23;3.55;;;12.70;99.90;;;;;;5041636;28;20044;-76
2024/04/08 02:17:25;;;;;;;7.45;3.08;;;12.70;99.90;;;;;;5041734;28;20041;-76
2024/04/08 02:19:51;;;;;;;9.63;3.40;;;12.70;99.90;;;;;;5040662;28;20037;-76
2024/04/08 02:22:17;;;;;;;13.50;3.25;;;12.70;99.90;;;;;;5046703;28;20044;-76
2024/04/08 02:24:43;;;;;;;8.88;3.35;;;12.70;99.90;;;;;;5046910;28;20076;-76
2024/04/08 02:27:09;;;;;;;5.55;2.63;;;12.70;99.90;;;;;;5040018;28;20048;-76
2024/04/08 02:29:36;;;;;;;8.48;3.90;;;12.70;99.90;;;;;;5046099;28;20492;-76
2024/04/08 02:32:01;;;;;;;9.73;3.05;;;12.70;99.90;;;;;;5043054;28;20558;-76
2024/04/08 02:34:27;;;;;;;12.77;3.65;;;12.70;99.90;;;;;;5040199;28;20041;-76
2024/04/08 02:36:53;;;;;;;7.53;3.10;;;12.60;99.90;;;;;;5042467;28;20087;-76
2024/04/08 02:39:19;;;;;;;11.25;4.07;;;12.70;99.90;;;;;;5041018;28;20044;-77
2024/04/08 02:41:44;;;;;;;9.10;2.97;;;12.70;99.90;;;;;;5041254;28;20479;-77
2024/04/08 02:44:10;;;;;;;10.00;3.40;;;12.80;99.90;;;;;;5042124;28;20037;-76
2024/04/08 02:46:35;;;;;;;7.97;3.72;;;12.70;99.90;;;;;;5035919;28;20485;-76
2024/04/08 02:49:01;;;;;;;10.75;3.60;;;12.70;99.90;;;;;;5040725;28;20492;-76
2024/04/08 02:51:27;;;;;;;9.45;3.75;;;12.70;99.90;;;;;;5038900;28;20104;-76
2024/04/08 02:53:52;;;;;;;10.35;3.58;;;12.70;99.90;;;;;;5042236;28;20061;-76
2024/04/08 02:56:18;;;;;;;8.63;3.20;;;12.70;99.90;;;;;;5015860;28;20116;-76
2024/04/08 02:58:48;;;;;;;10.07;3.80;;;12.70;99.90;;;;;;5043004;28;20536;-76
2024/04/08 03:01:14;;;;;;;8.20;3.40;;;12.60;99.90;;;;;;5042785;28;20116;-76
2024/04/08 03:03:40;;;;;;;7.28;3.47;;;12.60;99.90;;;;;;5037090;28;20136;-76
2024/04/08 03:06:10;;;;;;;5.30;3.10;;;12.60;99.90;;;;;;5041847;28;20434;-76
2024/04/08 03:08:36;;;;;;;9.18;3.78;;;12.60;99.90;;;;;;5065566;28;20191;-75
2024/04/08 03:11:03;;;;;;;7.40;3.35;;;12.60;99.90;;;;;;5042359;28;20120;-76
2024/04/08 03:14:56;;;;;;;6.88;3.00;;;12.60;99.90;;;;;;5452138;26;20332;-75
2024/04/08 03:17:24;;;;;;;10.93;3.28;;;12.50;99.90;;;;;;5434562;26;20031;-76
2024/04/08 03:19:53;;;;;;;11.52;3.40;;;12.50;99.90;;;;;;5445614;26;20010;-75
2024/04/08 03:22:21;;;;;;;12.13;4.05;;;12.50;99.90;;;;;;5443520;26;20034;-75
2024/04/08 03:24:48;;;;;;;9.35;3.30;;;12.50;99.90;;;;;;5436717;26;20030;-76
2024/04/08 03:27:15;;;;;;;8.40;3.40;;;12.50;99.90;;;;;;5380764;26;20484;-76
2024/04/08 03:29:42;;;;;;;10.23;3.55;;;12.50;99.90;;;;;;5384216;26;20375;-76
2024/04/08 03:32:08;;;;;;;8.55;3.55;;;12.50;99.90;;;;;;5372691;26;20024;-76
2024/04/08 03:34:35;;;;;;;10.10;3.60;;;12.50;99.90;;;;;;5379630;26;20025;-75
2024/04/08 03:37:03;;;;;;;11.60;4.70;;;12.50;99.90;;;;;;5383276;26;20025;-76
2024/04/08 03:39:30;;;;;;;8.48;3.88;;;12.50;99.90;;;;;;5391455;26;20028;-76
2024/04/08 03:41:57;;;;;;;7.15;3.63;;;12.60;99.90;;;;;;5370841;26;20106;-76
2024/04/08 03:44:24;;;;;;;10.88;3.88;;;12.60;99.90;;;;;;5371423;26;20025;-76
2024/04/08 03:46:51;;;;;;;7.10;3.78;;;12.60;99.90;;;;;;5378313;26;20033;-76
2024/04/08 03:49:18;;;;;;;7.93;3.60;;;12.50;99.90;;;;;;5377573;26;20044;-76
2024/04/08 03:51:45;;;;;;;9.43;3.80;;;12.60;99.90;;;;;;5369373;26;20508;-76
2024/04/08 03:54:12;;;;;;;11.20;4.05;;;12.60;99.90;;;;;;5377816;26;20010;-76
2024/04/08 03:56:39;;;;;;;9.85;4.10;;;12.60;99.90;;;;;;5378551;26;20028;-76
2024/04/08 03:59:06;;;;;;;9.40;4.55;;;12.60;99.90;;;;;;5374439;26;20036;-76
2024/04/08 04:01:32;;;;;;;7.30;3.75;;;12.60;99.90;;;;;;5383889;26;20037;-75
2024/04/08 04:04:00;;;;;;;8.80;4.28;;;12.60;99.90;;;;;;5371111;26;20029;-75
2024/04/08 04:06:28;;;;;;;7.90;4.45;;;12.60;99.90;;;;;;5382903;26;20036;-75
2024/04/08 04:08:55;;;;;;;7.57;4.00;;;12.50;99.90;;;;;;5376881;26;20028;-75
2024/04/08 04:11:25;;;;;;;7.22;4.53;;;12.60;99.90;;;;;;5382873;26;20368;-75
2024/04/08 04:13:52;;;;;;;12.60;6.15;;;12.60;99.90;;;;;;5375148;26;20007;-75
2024/04/08 04:16:19;;;;;;;8.32;4.70;;;12.60;99.90;;;;;;5382630;26;20049;-75
2024/04/08 04:18:47;;;;;;;9.57;5.85;;;12.60;99.90;;;;;;5382357;26;20479;-75
2024/04/08 04:21:14;;;;;;;10.35;5.38;;;12.60;99.90;;;;;;5379121;26;20037;-75
2024/04/08 04:23:41;;;;;;;13.57;5.53;;;12.60;99.90;;;;;;5371715;26;20033;-74
2024/04/08 04:26:07;;;;;;;12.77;6.25;;;12.60;99.90;;;;;;5357238;26;20483;-74
2024/04/08 04:28:34;;;;;;;11.90;6.05;;;12.60;99.90;;;;;;5360029;26;20029;-75
2024/04/08 04:31:02;;;;;;;10.45;6.47;;;12.60;99.90;;;;;;5372640;26;20503;-75
2024/04/08 04:33:29;;;;;;;12.65;6.40;;;12.60;99.90;;;;;;5366702;26;20348;-75
2024/04/08 04:35:59;;;;;;;12.45;6.60;;;12.60;99.90;;;;;;5360908;26;20040;-75
2024/04/08 04:38:26;;;;;;;9.27;5.30;;;12.60;99.90;;;;;;5358033;26;20399;-75
2024/04/08 04:41:01;;;;;;;10.65;5.93;;;12.60;99.90;;;;;;5353603;26;20028;-75
2024/04/08 04:43:28;;;;;;;9.07;5.47;;;12.60;99.90;;;;;;5349099;26;20033;-75
2024/04/08 04:45:56;;;;;;;9.35;5.65;;;12.60;99.90;;;;;;5364018;26;20456;-75
2024/04/08 04:48:23;;;;;;;9.45;5.93;;;12.60;99.90;;;;;;5356638;26;20033;-75
2024/04/08 04:50:50;;;;;;;8.98;5.72;;;12.60;99.90;;;;;;5357729;26;20063;-74
2024/04/08 04:53:17;;;;;;;9.68;6.75;;;12.60;99.90;;;;;;5364546;26;20041;-75
2024/04/08 04:55:53;;;;;;;12.50;6.85;;;12.60;99.90;;;;;;5359091;26;20352;-75
2024/04/08 04:58:21;;;;;;;11.15;5.82;;;12.60;99.90;;;;;;5363156;26;20027;-75
2024/04/08 05:00:49;;;;;;;9.85;5.80;;;12.60;99.90;;;;;;5360446;26;20049;-75
2024/04/08 05:03:17;;;;;;;12.32;7.20;;;12.60;99.90;;;;;;5354648;26;20011;-75
2024/04/08 05:05:57;;;;;;;14.55;6.65;;;12.60;99.90;;;;;;5360519;26;20111;-75
2024/04/08 05:08:24;;;;;;;11.93;6.60;;;12.60;99.90;;;;;;5369138;26;20029;-75
2024/04/08 05:10:51;;;;;;;13.48;7.82;;;12.60;99.90;;;;;;5365251;26;20051;-75
2024/04/08 05:13:18;;;;;;;10.63;6.03;;;12.60;99.90;;;;;;5371182;26;20036;-75
2024/04/08 05:15:59;;;;;;;9.00;6.30;;;12.60;99.90;;;;;;5356886;26;20448;-75
2024/04/08 05:18:26;;;;;;;10.30;6.72;;;12.60;99.90;;;;;;5371025;26;20078;-75
2024/04/08 05:20:55;;;;;;;11.32;7.35;;;12.60;99.90;;;;;;5362713;26;20411;-75
2024/04/08 05:23:23;;;;;;;8.68;6.43;;;12.60;99.90;;;;;;5357242;26;20512;-74
2024/04/08 05:25:50;;;;;;;10.73;5.85;;;12.60;99.90;;;;;;5361373;26;20062;-74
2024/04/08 05:28:17;;;;;;;11.63;7.05;;;12.60;99.90;;;;;;5359682;26;20033;-74
2024/04/08 05:30:45;;;;;;;10.68;6.53;;;12.60;99.90;;;;;;5374308;26;20001;-74
2024/04/08 05:33:12;;;;;;;9.15;5.80;;;12.60;99.90;;;;;;5371463;26;20361;-74
2024/04/08 05:35:46;;;;;;;11.05;6.30;;;12.60;99.90;;;;;;5365582;26;20028;-75
2024/04/08 05:38:14;;;;;;;9.38;6.18;;;12.70;99.90;;;;;;5367148;26;20033;-74
2024/04/08 05:40:42;;;;;;;11.77;6.22;;;12.60;99.90;;;;;;5349721;26;20037;-74
2024/04/08 05:43:14;;;;;;;8.63;4.82;;;12.60;99.90;;;;;;5362372;26;20022;-74
2024/04/08 05:45:42;;;;;;;10.35;6.25;;;12.70;99.90;;;;;;5360879;26;20024;-74
2024/04/08 05:48:09;;;;;;;10.43;5.57;;;12.60;99.90;;;;;;5365567;26;20025;-74
2024/04/08 05:50:36;;;;;;;9.77;5.80;;;12.70;99.90;;;;;;5368829;26;20383;-74
2024/04/08 05:53:03;;;;;;;11.30;6.50;;;12.70;99.90;;;;;;5362632;26;20059;-74
2024/04/08 05:55:30;;;;;;;10.98;5.95;;;12.70;99.90;;;;;;5360680;26;20004;-74
2024/04/08 05:57:58;;;;;;;10.43;6.80;;;12.80;99.90;;;;;;5350155;26;20068;-74
2024/04/08 06:00:24;;;;;;;10.02;6.03;;;12.80;99.90;;;;;;5358649;26;20010;-74
2024/04/08 06:02:53;;;;;;;10.98;6.22;;;12.90;99.90;;;;;;5350127;26;20029;-74
2024/04/08 06:05:22;;;;;;;11.30;5.93;;;12.90;99.90;;;;;;5351828;26;20444;-74
2024/04/08 06:07:49;;;;;;;12.27;6.43;;;12.90;99.90;;;;;;5353355;26;20028;-74
2024/04/08 06:10:17;;;;;;;12.38;6.20;;;12.90;99.90;;;;;;5360965;26;20024;-74
2024/04/08 06:12:44;;;;;;;9.18;6.30;;;13.00;99.90;;;;;;5353623;26;20080;-73
2024/04/08 06:15:13;;;;;;;9.73;5.65;;;13.00;99.90;;;;;;5359716;26;20001;-74
2024/04/08 06:17:41;;;;;;;14.82;6.00;;;13.00;99.90;;;;;;5361413;26;20033;-74
2024/04/08 06:20:09;;;;;;;8.48;5.68;;;13.00;99.90;;;;;;5370107;26;20019;-74
2024/04/08 06:22:37;;;;;;;10.18;5.97;;;13.00;99.90;;;;;;5357871;26;20103;-74
2024/04/08 06:25:06;;;;;;;8.30;5.05;;;13.00;99.90;;;;;;5356358;26;20346;-75
2024/04/08 06:27:33;;;;;;;10.15;5.82;;;13.00;99.90;;;;;;5361491;26;20388;-74
2024/04/08 06:30:00;;;;;;;9.55;5.50;;;13.00;99.90;;;;;;5364896;26;20024;-74
2024/04/08 06:32:27;;;;;;;10.55;5.90;;;13.00;99.90;;;;;;5350704;26;20033;-74
2024/04/08 06:34:54;;;;;;;10.57;5.70;;;13.00;99.90;;;;;;5367419;26;20000;-74
2024/04/08 06:37:21;;;;;;;10.07;5.95;;;13.00;99.90;;;;;;5363045;26;20033;-74
2024/04/08 06:39:48;;;;;;;8.43;5.47;;;13.00;99.90;;;;;;5361722;26;20037;-74
2024/04/08 06:42:17;;;;;;;11.27;6.47;;;13.00;99.90;;;;;;5351286;26;20028;-74
2024/04/08 06:44:48;;;;;;;10.20;5.60;;;13.00;99.90;;;;;;5363760;26;20036;-74
2024/04/08 06:47:15;;;;;;;10.05;6.20;;;13.00;99.90;;;;;;5355215;26;20048;-74
2024/04/08 06:49:43;;;;;;;9.05;5.80;;;13.00;99.90;;;;;;5363479;26;20033;-74
2024/04/08 06:52:11;;;;;;;10.18;5.95;;;13.00;99.90;;;;;;5356335;26;20052;-74
2024/04/08 06:54:38;;;;;;;9.25;5.85;;;13.00;99.90;;;;;;5362633;26;20044;-74
2024/04/08 06:57:05;;;;;;;12.63;5.53;;;13.00;99.90;;;;;;5361608;26;20033;-74
2024/04/08 06:59:32;;;;;;;8.82;5.55;;;13.10;99.90;;;;;;5355554;26;20035;-74
2024/04/08 07:02:00;;;;;;;8.20;5.28;;;13.10;99.90;;;;;;5357315;26;20036;-74
2024/04/08 07:04:27;;;;;;;8.07;4.97;;;13.10;99.90;;;;;;5353103;26;20028;-74
2024/04/08 07:06:54;;;;;;;7.50;4.82;;;13.10;99.90;;;;;;5352284;26;20282;-74
2024/04/08 07:09:23;;;;;;;11.30;5.25;;;13.10;99.90;;;;;;5365851;26;20492;-74
2024/04/08 07:11:49;;;;;;;9.32;4.80;;;13.10;99.90;;;;;;5370548;26;20056;-74
2024/04/08 07:14:16;;;;;;;8.93;5.13;;;13.10;99.90;;;;;;5345729;26;20038;-74
2024/04/08 07:16:45;;;;;;;7.38;5.32;;;13.20;99.90;;;;;;5353507;26;20029;-74
2024/04/08 07:19:12;;;;;;;10.98;5.07;;;13.20;99.90;;;;;;5354198;26;20044;-74
2024/04/08 07:21:39;;;;;;;7.88;4.90;;;13.20;99.90;;;;;;5361542;26;20032;-74
2024/04/08 07:24:07;;;;;;;8.23;4.90;;;13.20;99.90;;;;;;5353386;26;20160;-74
2024/04/08 07:26:34;;;;;;;7.55;5.00;;;13.20;99.90;;;;;;5361311;26;20067;-74
2024/04/08 07:29:01;;;;;;;6.97;5.00;;;13.30;99.90;;;;;;5366301;26;20394;-74
2024/04/08 07:31:28;;;;;;;8.18;4.57;;;13.30;99.90;;;;;;5361715;26;20020;-74
2024/04/08 07:33:55;;;;;;;8.05;4.57;;;13.40;99.90;;;;;;5360835;26;20489;-74
2024/04/08 07:36:22;;;;;;;8.73;4.70;;;13.60;99.90;;;;;;5361829;26;20014;-74
2024/04/08 07:38:49;;;;;;;5.93;4.18;;;13.70;99.90;;;;;;5351721;26;20041;-74
2024/04/08 07:41:17;;;;;;;7.80;4.32;;;13.80;99.90;;;;;;5358880;26;20033;-74
2024/04/08 07:43:44;;;;;;;8.43;4.50;;;14.00;99.90;;;;;;5363266;26;20028;-74
2024/04/08 07:46:11;;;;;;;7.53;4.93;;;14.10;99.90;;;;;;5361709;26;20028;-74
2024/04/08 07:48:38;;;;;;;6.63;4.70;;;14.20;99.90;;;;;;5358845;26;20495;-74
2024/04/08 07:51:05;;;;;;;6.95;3.88;;;14.30;99.90;;;;;;5358539;26;20048;-74
2024/04/08 07:53:32;;;;;;;7.75;4.55;;;14.40;99.90;;;;;;5358867;26;20021;-74
2024/04/08 07:56:00;;;;;;;7.43;4.80;;;14.60;99.90;;;;;;5355688;26;20358;-73
2024/04/08 07:58:29;;;;;;;8.35;4.18;;;14.90;99.90;;;;;;5356546;26;20033;-74
2024/04/08 08:00:58;;;;;;;8.15;4.57;;;15.30;99.90;;;;;;5363092;26;20100;-74
2024/04/08 08:03:26;;;;;;;5.43;4.00;;;15.50;99.90;;;;;;5360472;26;20036;-74
2024/04/08 08:05:54;;;;;;;5.28;3.88;;;15.50;99.90;;;;;;5360983;26;20032;-74
2024/04/08 08:08:21;;;;;;;6.55;4.00;;;15.50;99.90;;;;;;5370227;26;20025;-75
2024/04/08 08:10:48;;;;;;;7.97;4.13;;;15.60;99.90;;;;;;5354980;26;20028;-75
2024/04/08 08:13:15;;;;;;;9.00;4.60;;;15.80;99.90;;;;;;5360541;26;20021;-75
2024/04/08 08:15:42;;;;;;;7.50;3.95;;;16.10;99.90;;;;;;5355516;26;20029;-75
2024/04/08 08:18:09;;;;;;;7.38;4.57;;;16.30;99.90;;;;;;5356617;26;20040;-75
2024/04/08 08:20:38;;;;;;;7.45;4.57;;;16.50;99.90;;;;;;5364134;26;20032;-75
2024/04/08 08:23:05;;;;;;;6.38;4.47;;;16.70;99.90;;;;;;5362348;26;20040;-75
2024/04/08 08:25:35;;;;;;;6.07;4.57;;;16.80;99.90;;;;;;5362081;26;20032;-75
2024/04/08 08:28:02;;;;;;;7.97;4.13;;;17.10;99.90;;;;;;5366803;26;20028;-75
2024/04/08 08:30:29;;;;;;;7.70;4.63;;;17.50;99.90;;;;;;5358829;26;20031;-74
2024/04/08 08:32:57;;;;;;;7.93;5.28;;;17.90;99.90;;;;;;5357683;26;20099;-75
2024/04/08 08:35:24;;;;;;;7.13;5.00;;;18.10;99.90;;;;;;5360074;26;20477;-75
2024/04/08 08:37:51;;;;;;;7.70;5.13;;;18.00;99.90;;;;;;5361797;26;20033;-74
2024/04/08 08:40:20;;;;;;;10.50;5.32;;;18.10;99.90;;;;;;5353856;26;20056;-74
2024/04/08 08:42:50;;;;;;;8.63;5.53;;;18.00;99.90;;;;;;5358095;26;20029;-74
2024/04/08 08:45:17;;;;;;;7.00;5.15;;;17.70;99.90;;;;;;5374511;26;20028;-74
2024/04/08 08:47:44;;;;;;;7.72;4.75;;;17.30;99.90;;;;;;5362163;26;20104;-74
2024/04/08 08:50:12;;;;;;;9.35;5.03;;;17.10;99.90;;;;;;5356120;26;20036;-74
2024/04/08 08:52:39;;;;;;;5.25;4.63;;;16.90;99.90;;;;;;5369379;26;20021;-74
2024/04/08 08:55:06;;;;;;;7.43;5.03;;;16.80;99.90;;;;;;5370381;26;20045;-74
2024/04/08 08:57:34;;;;;;;9.23;5.47;;;16.70;99.90;;;;;;5360650;26;20446;-74
2024/04/08 09:00:05;;;;;;;8.55;4.90;;;16.80;99.90;;;;;;5364999;26;20040;-74
2024/04/08 09:02:34;;;;;;;9.40;5.22;;;17.10;99.90;;;;;;5358870;26;20025;-74
2024/04/08 09:05:01;;;;;;;8.00;5.25;;;17.40;99.90;;;;;;5366495;26;20036;-74
2024/04/08 09:07:28;;;;;;;6.25;4.60;;;17.90;99.90;;;;;;5358753;26;20068;-75
2024/04/08 09:09:57;;;;;;;7.20;4.95;;;18.20;99.90;;;;;;5361764;26;20049;-75
2024/04/08 09:12:24;;;;;;;6.68;4.72;;;18.60;99.90;;;;;;5359863;26;20490;-75
2024/04/08 09:14:52;;;;;;;9.18;4.40;;;18.90;99.90;;;;;;5361003;26;20032;-75
2024/04/08 09:17:20;;;;;;;8.20;4.70;;;19.00;99.90;;;;;;5366289;26;20384;-73
2024/04/08 09:19:47;;;;;;;4.97;3.88;;;19.00;99.90;;;;;;5367899;26;20471;-75
2024/04/08 09:22:14;;;;;;;7.30;4.90;;;19.10;99.90;;;;;;5361722;26;20033;-75
2024/04/08 09:24:42;;;;;;;7.32;4.10;;;19.20;99.90;;;;;;5363556;26;20020;-75
2024/04/08 09:27:10;;;;;;;5.18;3.85;;;19.60;99.90;;;;;;5356979;26;20032;-75
2024/04/08 09:29:38;;;;;;;7.93;4.22;;;19.90;99.90;;;;;;5357219;26;20372;-75
2024/04/08 09:32:08;;;;;;;6.90;4.03;;;20.20;99.90;;;;;;5357361;26;20462;-75
2024/04/08 09:34:35;;;;;;;9.98;3.67;;;20.50;99.90;;;;;;5368700;26;20036;-75
2024/04/08 09:37:03;;;;;;;6.75;3.95;;;20.80;99.90;;;;;;5360113;26;20031;-75
2024/04/08 09:39:31;;;;;;;7.32;3.80;;;21.10;99.90;;;;;;5355191;26;20037;-75
2024/04/08 09:42:00;;;;;;;6.03;3.85;;;21.40;99.90;;;;;;5363285;26;20029;-75
2024/04/08 09:44:30;;;;;;;5.35;3.92;;;21.60;99.90;;;;;;5361536;26;20021;-75
2024/04/08 09:47:01;;;;;;;7.65;3.97;;;21.70;99.90;;;;;;5360447;26;20033;-75
2024/04/08 09:49:28;;;;;;;4.78;3.38;;;21.90;99.90;;;;;;5368653;26;20040;-75
2024/04/08 09:51:55;;;;;;;5.38;2.90;;;22.30;99.90;;;;;;5359666;26;20068;-76
2024/04/08 09:54:22;;;;;;;5.82;3.15;;;22.60;99.90;;;;;;5373328;26;20028;-76
2024/04/08 09:56:57;;;;;;;5.10;2.80;;;22.50;99.90;;;;;;5365772;26;20363;-72
2024/04/08 09:59:24;;;;;;;7.47;3.28;;;22.30;99.90;;;;;;5364883;26;20028;-71
2024/04/08 10:01:54;;;;;;;4.88;2.90;;;21.90;99.90;;;;;;5352258;26;20049;-72
2024/04/08 10:04:22;;;;;;;5.20;3.33;;;21.80;99.90;;;;;;5365180;26;20056;-72
2024/04/08 10:06:51;;;;;;;5.28;3.25;;;22.10;99.90;;;;;;5364797;26;20032;-72
2024/04/08 10:09:21;;;;;;;5.35;2.95;;;22.20;99.90;;;;;;5365354;26;20542;-72
2024/04/08 10:11:52;;;;;;;6.85;3.13;;;22.20;99.90;;;;;;5358554;26;20059;-72
2024/04/08 10:14:23;;;;;;;4.68;2.80;;;22.30;99.90;;;;;;5366097;26;20044;-72
2024/04/08 10:16:50;;;;;;;6.85;3.63;;;22.20;99.90;;;;;;5354473;26;20011;-72
2024/04/08 10:19:23;;;;;;;6.25;3.08;;;22.00;99.90;;;;;;5365551;26;20032;-71
2024/04/08 10:22:00;;;;;;;6.25;3.25;;;21.80;99.90;;;;;;5360675;26;20027;-71
2024/04/08 10:24:31;;;;;;;5.78;3.20;;;21.90;99.90;;;;;;5361270;26;20044;-72
2024/04/08 10:27:04;;;;;;;5.65;2.35;;;22.00;99.90;;;;;;5352130;26;20025;-71
2024/04/08 10:29:35;;;;;;;6.03;2.95;;;22.30;99.90;;;;;;5360991;26;20068;-71
2024/04/08 10:32:08;;;;;;;5.63;2.20;;;22.40;99.90;;;;;;5356421;26;20024;-71
2024/04/08 10:34:36;;;;;;;4.10;2.42;;;22.50;99.90;;;;;;5359264;26;20038;-71
2024/04/08 10:37:03;;;;;;;6.43;2.85;;;22.50;99.90;;;;;;5360886;26;20027;-71
2024/04/08 10:39:30;;;;;;;5.13;2.30;;;22.60;99.90;;;;;;5361313;26;20044;-71
2024/04/08 10:42:10;;;;;;;4.68;2.58;;;22.70;99.90;;;;;;5362498;26;20028;-72
2024/04/08 10:44:37;;;;;;;5.15;2.38;;;22.90;99.90;;;;;;5369286;26;20040;-71
2024/04/08 10:47:08;;;;;;;2.90;2.28;;;23.10;99.90;;;;;;5358536;26;20389;-72
2024/04/08 10:49:35;;;;;;;3.83;1.80;;;23.40;99.90;;;;;;5362841;26;20488;-71
2024/04/08 10:52:02;;;;;;;4.32;2.55;;;23.60;99.90;;;;;;5357526;26;20365;-72
2024/04/08 10:54:31;;;;;;;6.72;2.25;;;23.50;99.90;;;;;;5368170;26;20028;-71
2024/04/08 10:56:58;;;;;;;3.13;1.80;;;23.50;99.90;;;;;;5359773;26;20037;-72
2024/04/08 10:59:25;;;;;;;5.22;1.58;;;23.60;99.90;;;;;;5363335;26;20037;-72
2024/04/08 11:01:54;;;;;;;4.03;1.80;;;23.70;99.90;;;;;;5364038;26;20497;-73
2024/04/08 11:04:22;;;;;;;3.28;1.65;;;23.90;99.90;;;;;;5356948;26;20375;-72
2024/04/08 11:06:49;;;;;;;3.65;1.50;;;23.70;99.90;;;;;;5355920;26;20032;-73
2024/04/08 11:09:16;;;;;;;7.65;1.70;;;23.80;99.90;;;;;;5352384;26;20028;-73
2024/04/08 11:11:43;;;;;;;2.95;1.20;;;24.10;99.90;;;;;;5356987;26;20053;-74
2024/04/08 11:14:10;;;;;;;3.15;1.42;;;24.40;99.90;;;;;;5365213;26;20456;-74
2024/04/08 11:16:37;;;;;;;3.03;1.40;;;24.70;99.90;;;;;;5358951;26;20033;-73
2024/04/08 11:19:06;;;;;;;4.03;1.70;;;24.80;99.90;;;;;;5345580;26;20028;-73
2024/04/08 11:21:33;;;;;;;3.70;1.58;;;24.70;99.90;;;;;;5357122;26;20382;-73
2024/04/08 11:24:00;;;;;;;3.75;1.70;;;24.30;99.90;;;;;;5354281;26;20028;-73
2024/04/08 11:26:30;;;;;;;3.50;1.80;;;23.70;99.90;;;;;;5357204;26;20037;-73
2024/04/08 11:29:01;;;;;;;5.22;1.70;;;23.10;99.90;;;;;;5362361;26;20032;-72
2024/04/08 11:31:29;;;;;;;5.38;1.80;;;22.70;99.90;;;;;;5364338;26;20029;-72
2024/04/08 11:33:55;;;;;;;4.95;1.35;;;22.20;99.90;;;;;;5362552;26;20019;-72
2024/04/08 11:36:22;;;;;;;3.60;1.30;;;21.90;99.90;;;;;;5370130;26;20028;-72
2024/04/08 11:38:50;;;;;;;2.22;0.90;;;21.50;99.90;;;;;;5370113;26;20032;-72
2024/04/08 11:41:17;;;;;;;2.97;0.77;;;21.40;99.90;;;;;;5363353;26;20145;-72
2024/04/08 11:43:44;;;;;;;5.03;0.73;;;21.40;99.90;;;;;;5356648;26;20008;-72
2024/04/08 11:46:12;;;;;;;2.60;0.70;;;21.60;99.90;;;;;;5363474;26;20044;-73
2024/04/08 11:48:41;;;;;;;2.50;0.90;;;21.70;99.90;;;;;;5369278;26;20401;-73
2024/04/08 11:51:08;;;;;;;3.15;0.80;;;22.20;99.90;;;;;;5364082;26;20011;-71
2024/04/08 11:53:35;;;;;;;4.22;0.90;;;22.40;99.90;;;;;;5370794;26;20041;-72
2024/04/08 11:56:02;;;;;;;2.10;0.60;;;22.50;99.90;;;;;;5361138;26;20028;-72
2024/04/08 11:58:29;;;;;;;4.13;1.30;;;22.80;99.90;;;;;;5370951;26;20377;-71
2024/04/08 12:00:56;;;;;;;2.97;1.00;;;23.30;99.90;;;;;;5362231;26;20056;-72
2024/04/08 12:03:23;;;;;;;4.63;0.90;;;23.60;99.90;;;;;;5366183;26;20024;-72
2024/04/08 12:05:50;;;;;;;2.90;1.00;;;23.60;99.90;;;;;;5362682;26;20041;-72
2024/04/08 12:08:17;;;;;;;2.78;0.90;;;23.50;99.90;;;;;;5366992;26;20058;-72
2024/04/08 12:10:44;;;;;;;3.20;0.77;;;23.50;99.90;;;;;;5356330;26;20354;-72
2024/04/08 12:13:18;;;;;;;2.08;0.75;;;23.10;99.90;;;;;;5355781;26;20044;-72
2024/04/08 12:15:47;;;;;;;2.47;0.95;;;22.90;99.90;;;;;;5359868;26;20024;-72
2024/04/08 12:18:13;;;;;;;3.20;1.10;;;22.40;99.90;;;;;;5367864;26;20024;-72
2024/04/08 12:20:41;;;;;;;3.72;1.10;;;22.00;99.90;;;;;;5358962;26;20036;-71
2024/04/08 12:23:11;;;;;;;2.30;1.05;;;21.50;99.90;;;;;;5368933;26;20136;-71
2024/04/08 12:25:39;;;;;;;4.45;1.00;;;21.10;99.90;;;;;;5359007;26;20024;-71
2024/04/08 12:28:08;;;;;;;2.83;1.10;;;20.90;99.90;;;;;;5372770;26;20464;-72
2024/04/08 12:30:35;;;;;;;3.83;1.20;;;20.60;99.90;;;;;;5370326;26;20031;-72
2024/04/08 12:33:03;;;;;;;2.15;0.88;;;20.40;99.90;;;;;;5365733;26;20032;-71
2024/04/08 12:35:30;;;;;;;3.35;1.60;;;20.30;99.90;;;;;;5364275;26;20480;-71
2024/04/08 12:37:58;;;;;;;5.05;1.50;;;20.10;99.90;;;;;;5364821;26;20029;-71
2024/04/08 12:40:25;;;;;;;5.75;1.40;;;20.10;99.90;;;;;;5366338;26;20036;-71
2024/04/08 12:42:52;;;;;;;3.05;1.30;;;20.00;99.90;;;;;;5361359;26;20004;-71
2024/04/08 12:45:19;;;;;;;2.95;1.23;;;19.90;99.90;;;;;;5368087;26;20391;-71